sensor_id;sensor_type;location;lat;lon;timestamp;P1;durP1;ratioP1;P2;durP2;ratioP2
2494;SDS011;1258;48.336;14.322;2024-03-23T00:55:37;3.03;;;2.73;;
2494;SDS011;1258;48.336;14.322;2024-03-23T00:58:03;3.63;;;3.33;;
2494;SDS011;1258;48.336;14.322;2024-03-23T01:00:30;3.60;;;3.30;;
2494;SDS011;1258;48.336;14.322;2024-03-23T01:02:56;5.97;;;5.37;;
2494;SDS011;1258;48.336;14.322;2024-03-23T01:05:23;7.90;;;6.70;;
2494;SDS011;1258;48.336;14.322;2024-03-23T01:07:49;9.97;;;8.33;;
2494;SDS011;1258;48.336;14.322;2024-03-23T01:10:16;10.20;;;9.20;;
2494;SDS011;1258;48.336;14.322;2024-03-23T01:12:43;15.37;;;12.03;;
2494;SDS011;1258;48.336;14.322;2024-03-23T01:15:11;13.43;;;11.43;;
2494;SDS011;1258;48.336;14.322;2024-03-23T01:17:37;16.37;;;12.53;;
2494;SDS011;1258;48.336;14.322;2024-03-23T01:20:04;14.30;;;11.40;;
2494;SDS011;1258;48.336;14.322;2024-03-23T01:22:31;13.73;;;10.87;;
2494;SDS011;1258;48.336;14.322;2024-03-23T01:24:58;14.37;;;11.30;;
2494;SDS011;1258;48.336;14.322;2024-03-23T01:27:24;11.50;;;9.90;;
2494;SDS011;1258;48.336;14.322;2024-03-23T01:29:52;13.97;;;12.40;;
2494;SDS011;1258;48.336;14.322;2024-03-23T01:32:18;13.93;;;10.40;;
2494;SDS011;1258;48.336;14.322;2024-03-23T01:34:45;11.43;;;9.87;;
2494;SDS011;1258;48.336;14.322;2024-03-23T01:37:11;11.53;;;9.50;;
2494;SDS011;1258;48.336;14.322;2024-03-23T01:39:38;10.50;;;8.70;;
2494;SDS011;1258;48.336;14.322;2024-03-23T01:42:04;9.33;;;7.63;;
2494;SDS011;1258;48.336;14.322;2024-03-23T01:44:31;8.20;;;7.30;;
2494;SDS011;1258;48.336;14.322;2024-03-23T01:46:58;7.33;;;6.60;;
2494;SDS011;1258;48.336;14.322;2024-03-23T01:49:25;8.03;;;7.13;;
2494;SDS011;1258;48.336;14.322;2024-03-23T01:51:51;6.83;;;6.13;;
2494;SDS011;1258;48.336;14.322;2024-03-23T01:54:18;7.03;;;6.33;;
2494;SDS011;1258;48.336;14.322;2024-03-23T01:56:44;8.43;;;7.57;;
2494;SDS011;1258;48.336;14.322;2024-03-23T01:59:12;7.67;;;6.17;;
2494;SDS011;1258;48.336;14.322;2024-03-23T02:01:38;6.17;;;5.40;;
2494;SDS011;1258;48.336;14.322;2024-03-23T02:04:07;5.37;;;4.87;;
2494;SDS011;1258;48.336;14.322;2024-03-23T02:06:34;5.07;;;4.47;;
2494;SDS011;1258;48.336;14.322;2024-03-23T02:09:01;5.83;;;5.17;;
2494;SDS011;1258;48.336;14.322;2024-03-23T02:11:28;4.80;;;4.27;;
2494;SDS011;1258;48.336;14.322;2024-03-23T02:13:55;5.13;;;4.60;;
2494;SDS011;1258;48.336;14.322;2024-03-23T02:16:21;6.93;;;6.23;;
2494;SDS011;1258;48.336;14.322;2024-03-23T02:18:48;7.33;;;6.43;;
2494;SDS011;1258;48.336;14.322;2024-03-23T02:21:16;5.70;;;5.20;;
2494;SDS011;1258;48.336;14.322;2024-03-23T02:23:44;5.50;;;4.90;;
2494;SDS011;1258;48.336;14.322;2024-03-23T02:26:10;5.20;;;4.50;;
2494;SDS011;1258;48.336;14.322;2024-03-23T02:28:38;5.60;;;5.00;;
2494;SDS011;1258;48.336;14.322;2024-03-23T02:31:05;5.20;;;4.37;;
2494;SDS011;1258;48.336;14.322;2024-03-23T02:33:31;6.40;;;4.63;;
2494;SDS011;1258;48.336;14.322;2024-03-23T02:35:59;3.93;;;3.53;;
2494;SDS011;1258;48.336;14.322;2024-03-23T02:38:25;4.80;;;4.30;;
2494;SDS011;1258;48.336;14.322;2024-03-23T02:40:53;4.40;;;4.00;;
2494;SDS011;1258;48.336;14.322;2024-03-23T02:43:20;4.60;;;4.20;;
2494;SDS011;1258;48.336;14.322;2024-03-23T02:45:46;5.13;;;4.07;;
2494;SDS011;1258;48.336;14.322;2024-03-23T02:48:13;4.70;;;4.20;;
2494;SDS011;1258;48.336;14.322;2024-03-23T02:50:44;4.40;;;4.00;;
2494;SDS011;1258;48.336;14.322;2024-03-23T02:53:11;4.27;;;3.87;;
2494;SDS011;1258;48.336;14.322;2024-03-23T02:55:37;5.87;;;4.30;;
2494;SDS011;1258;48.336;14.322;2024-03-23T02:58:05;4.53;;;3.43;;
2494;SDS011;1258;48.336;14.322;2024-03-23T03:00:31;3.63;;;3.23;;
2494;SDS011;1258;48.336;14.322;2024-03-23T03:02:58;3.57;;;2.90;;
2494;SDS011;1258;48.336;14.322;2024-03-23T03:05:24;3.20;;;2.90;;
2494;SDS011;1258;48.336;14.322;2024-03-23T03:07:51;3.50;;;3.00;;
2494;SDS011;1258;48.336;14.322;2024-03-23T03:10:17;4.13;;;3.17;;
2494;SDS011;1258;48.336;14.322;2024-03-23T03:12:44;3.90;;;3.40;;
2494;SDS011;1258;48.336;14.322;2024-03-23T03:15:11;3.73;;;3.10;;
2494;SDS011;1258;48.336;14.322;2024-03-23T03:17:38;3.27;;;2.97;;
2494;SDS011;1258;48.336;14.322;2024-03-23T03:20:04;4.20;;;3.80;;
2494;SDS011;1258;48.336;14.322;2024-03-23T03:22:32;3.20;;;2.90;;
2494;SDS011;1258;48.336;14.322;2024-03-23T03:24:58;4.60;;;4.20;;
2494;SDS011;1258;48.336;14.322;2024-03-23T03:27:27;3.50;;;3.20;;
2494;SDS011;1258;48.336;14.322;2024-03-23T03:29:53;3.47;;;3.10;;
2494;SDS011;1258;48.336;14.322;2024-03-23T03:32:21;4.07;;;3.37;;
2494;SDS011;1258;48.336;14.322;2024-03-23T03:34:47;3.50;;;3.17;;
2494;SDS011;1258;48.336;14.322;2024-03-23T03:37:15;3.67;;;3.27;;
2494;SDS011;1258;48.336;14.322;2024-03-23T03:39:41;3.67;;;3.37;;
2494;SDS011;1258;48.336;14.322;2024-03-23T03:42:07;3.83;;;3.53;;
2494;SDS011;1258;48.336;14.322;2024-03-23T03:44:33;3.20;;;2.90;;
2494;SDS011;1258;48.336;14.322;2024-03-23T03:47:01;3.40;;;3.03;;
2494;SDS011;1258;48.336;14.322;2024-03-23T03:49:29;3.53;;;3.23;;
2494;SDS011;1258;48.336;14.322;2024-03-23T03:51:56;3.63;;;3.27;;
2494;SDS011;1258;48.336;14.322;2024-03-23T03:54:21;3.80;;;3.40;;
2494;SDS011;1258;48.336;14.322;2024-03-23T03:56:48;4.80;;;3.37;;
2494;SDS011;1258;48.336;14.322;2024-03-23T03:59:14;3.50;;;3.10;;
2494;SDS011;1258;48.336;14.322;2024-03-23T04:01:42;3.13;;;2.83;;
2494;SDS011;1258;48.336;14.322;2024-03-23T04:04:08;2.70;;;2.43;;
2494;SDS011;1258;48.336;14.322;2024-03-23T04:06:36;2.90;;;2.30;;
2494;SDS011;1258;48.336;14.322;2024-03-23T04:09:02;2.70;;;2.40;;
2494;SDS011;1258;48.336;14.322;2024-03-23T04:11:29;5.50;;;2.43;;
2494;SDS011;1258;48.336;14.322;2024-03-23T04:13:55;3.00;;;2.60;;
2494;SDS011;1258;48.336;14.322;2024-03-23T04:16:26;3.00;;;2.70;;
2494;SDS011;1258;48.336;14.322;2024-03-23T04:18:52;3.70;;;3.03;;
2494;SDS011;1258;48.336;14.322;2024-03-23T04:21:19;3.20;;;2.60;;
2494;SDS011;1258;48.336;14.322;2024-03-23T04:23:46;3.13;;;2.80;;
2494;SDS011;1258;48.336;14.322;2024-03-23T04:26:14;3.03;;;2.50;;
2494;SDS011;1258;48.336;14.322;2024-03-23T04:28:40;3.33;;;3.00;;
2494;SDS011;1258;48.336;14.322;2024-03-23T04:31:08;3.43;;;3.13;;
2494;SDS011;1258;48.336;14.322;2024-03-23T04:33:34;3.37;;;3.03;;
2494;SDS011;1258;48.336;14.322;2024-03-23T04:36:00;2.87;;;2.63;;
2494;SDS011;1258;48.336;14.322;2024-03-23T04:38:27;3.63;;;3.33;;
2494;SDS011;1258;48.336;14.322;2024-03-23T04:40:56;3.33;;;3.03;;
2494;SDS011;1258;48.336;14.322;2024-03-23T04:43:24;3.57;;;3.27;;
2494;SDS011;1258;48.336;14.322;2024-03-23T04:45:51;3.93;;;3.63;;
2494;SDS011;1258;48.336;14.322;2024-03-23T04:48:19;3.50;;;3.20;;
2494;SDS011;1258;48.336;14.322;2024-03-23T04:50:47;3.70;;;3.40;;
2494;SDS011;1258;48.336;14.322;2024-03-23T04:53:15;3.43;;;3.13;;
2494;SDS011;1258;48.336;14.322;2024-03-23T04:55:42;3.50;;;3.20;;
2494;SDS011;1258;48.336;14.322;2024-03-23T04:58:11;3.30;;;2.97;;
2494;SDS011;1258;48.336;14.322;2024-03-23T05:00:37;3.20;;;2.90;;
2494;SDS011;1258;48.336;14.322;2024-03-23T05:03:04;2.67;;;2.47;;
2494;SDS011;1258;48.336;14.322;2024-03-23T05:05:30;3.70;;;3.40;;
2494;SDS011;1258;48.336;14.322;2024-03-23T05:07:57;2.80;;;2.60;;
2494;SDS011;1258;48.336;14.322;2024-03-23T05:10:23;3.10;;;2.80;;
2494;SDS011;1258;48.336;14.322;2024-03-23T05:12:50;3.73;;;3.37;;
2494;SDS011;1258;48.336;14.322;2024-03-23T05:15:18;3.87;;;3.47;;
2494;SDS011;1258;48.336;14.322;2024-03-23T05:17:45;3.40;;;3.10;;
2494;SDS011;1258;48.336;14.322;2024-03-23T05:20:11;3.57;;;3.00;;
2494;SDS011;1258;48.336;14.322;2024-03-23T05:22:37;3.30;;;3.00;;
2494;SDS011;1258;48.336;14.322;2024-03-23T05:25:04;3.00;;;2.70;;
2494;SDS011;1258;48.336;14.322;2024-03-23T05:27:31;2.83;;;2.63;;
2494;SDS011;1258;48.336;14.322;2024-03-23T05:29:58;3.40;;;3.10;;
2494;SDS011;1258;48.336;14.322;2024-03-23T05:32:26;2.90;;;2.60;;
2494;SDS011;1258;48.336;14.322;2024-03-23T05:34:53;2.47;;;2.27;;
2494;SDS011;1258;48.336;14.322;2024-03-23T05:37:21;3.10;;;2.80;;
2494;SDS011;1258;48.336;14.322;2024-03-23T05:39:48;3.40;;;3.10;;
2494;SDS011;1258;48.336;14.322;2024-03-23T05:42:15;3.30;;;3.00;;
2494;SDS011;1258;48.336;14.322;2024-03-23T05:44:42;4.00;;;3.00;;
2494;SDS011;1258;48.336;14.322;2024-03-23T05:47:10;2.47;;;2.27;;
2494;SDS011;1258;48.336;14.322;2024-03-23T05:49:39;3.00;;;2.43;;
2494;SDS011;1258;48.336;14.322;2024-03-23T05:52:06;3.40;;;2.90;;
2494;SDS011;1258;48.336;14.322;2024-03-23T05:54:33;2.50;;;2.30;;
2494;SDS011;1258;48.336;14.322;2024-03-23T05:57:00;2.83;;;2.53;;
2494;SDS011;1258;48.336;14.322;2024-03-23T05:59:26;2.43;;;2.23;;
2494;SDS011;1258;48.336;14.322;2024-03-23T06:01:54;2.67;;;2.47;;
2494;SDS011;1258;48.336;14.322;2024-03-23T06:04:20;3.27;;;2.80;;
2494;SDS011;1258;48.336;14.322;2024-03-23T06:06:49;3.37;;;2.73;;
2494;SDS011;1258;48.336;14.322;2024-03-23T06:09:17;2.47;;;2.03;;
2494;SDS011;1258;48.336;14.322;2024-03-23T06:11:44;2.63;;;2.43;;
2494;SDS011;1258;48.336;14.322;2024-03-23T06:14:10;3.00;;;2.67;;
2494;SDS011;1258;48.336;14.322;2024-03-23T06:16:37;4.63;;;4.23;;
2494;SDS011;1258;48.336;14.322;2024-03-23T06:19:03;6.07;;;5.50;;
2494;SDS011;1258;48.336;14.322;2024-03-23T06:21:31;9.00;;;8.20;;
2494;SDS011;1258;48.336;14.322;2024-03-23T06:23:59;8.40;;;7.60;;
2494;SDS011;1258;48.336;14.322;2024-03-23T06:26:26;8.17;;;7.40;;
2494;SDS011;1258;48.336;14.322;2024-03-23T06:28:52;8.10;;;7.40;;
2494;SDS011;1258;48.336;14.322;2024-03-23T06:31:19;8.67;;;7.87;;
2494;SDS011;1258;48.336;14.322;2024-03-23T06:33:45;7.40;;;6.80;;
2494;SDS011;1258;48.336;14.322;2024-03-23T06:36:11;7.43;;;6.80;;
2494;SDS011;1258;48.336;14.322;2024-03-23T06:38:37;6.47;;;5.87;;
2494;SDS011;1258;48.336;14.322;2024-03-23T06:41:06;7.00;;;6.43;;
2494;SDS011;1258;48.336;14.322;2024-03-23T06:43:32;7.07;;;6.57;;
2494;SDS011;1258;48.336;14.322;2024-03-23T06:45:58;7.53;;;6.83;;
2494;SDS011;1258;48.336;14.322;2024-03-23T06:48:24;8.40;;;7.60;;
2494;SDS011;1258;48.336;14.322;2024-03-23T06:50:55;8.10;;;7.30;;
2494;SDS011;1258;48.336;14.322;2024-03-23T06:53:22;8.37;;;7.57;;
2494;SDS011;1258;48.336;14.322;2024-03-23T06:55:49;8.50;;;7.80;;
2494;SDS011;1258;48.336;14.322;2024-03-23T06:58:18;8.67;;;7.87;;
2494;SDS011;1258;48.336;14.322;2024-03-23T07:00:45;8.80;;;8.10;;
2494;SDS011;1258;48.336;14.322;2024-03-23T07:03:11;9.70;;;8.90;;
2494;SDS011;1258;48.336;14.322;2024-03-23T07:05:38;7.90;;;7.27;;
2494;SDS011;1258;48.336;14.322;2024-03-23T07:08:04;10.23;;;9.23;;
2494;SDS011;1258;48.336;14.322;2024-03-23T07:10:32;9.70;;;8.70;;
2494;SDS011;1258;48.336;14.322;2024-03-23T07:12:58;11.23;;;10.23;;
2494;SDS011;1258;48.336;14.322;2024-03-23T07:15:26;10.80;;;9.83;;
2494;SDS011;1258;48.336;14.322;2024-03-23T07:17:52;9.40;;;8.60;;
2494;SDS011;1258;48.336;14.322;2024-03-23T07:20:19;11.53;;;10.53;;
2494;SDS011;1258;48.336;14.322;2024-03-23T07:22:45;9.33;;;8.43;;
2494;SDS011;1258;48.336;14.322;2024-03-23T07:25:14;8.70;;;7.90;;
2494;SDS011;1258;48.336;14.322;2024-03-23T07:27:40;9.43;;;8.63;;
2494;SDS011;1258;48.336;14.322;2024-03-23T07:30:07;8.93;;;8.13;;
2494;SDS011;1258;48.336;14.322;2024-03-23T07:32:35;7.03;;;6.47;;
2494;SDS011;1258;48.336;14.322;2024-03-23T07:35:02;8.83;;;8.03;;
2494;SDS011;1258;48.336;14.322;2024-03-23T07:37:29;9.53;;;8.63;;
2494;SDS011;1258;48.336;14.322;2024-03-23T07:39:56;8.70;;;7.80;;
2494;SDS011;1258;48.336;14.322;2024-03-23T07:42:22;7.97;;;7.27;;
2494;SDS011;1258;48.336;14.322;2024-03-23T07:44:51;7.90;;;7.20;;
2494;SDS011;1258;48.336;14.322;2024-03-23T07:47:18;7.27;;;6.60;;
2494;SDS011;1258;48.336;14.322;2024-03-23T07:49:47;7.30;;;6.70;;
2494;SDS011;1258;48.336;14.322;2024-03-23T07:52:13;6.87;;;6.27;;
2494;SDS011;1258;48.336;14.322;2024-03-23T07:54:40;7.23;;;6.60;;
2494;SDS011;1258;48.336;14.322;2024-03-23T07:57:06;6.37;;;5.80;;
2494;SDS011;1258;48.336;14.322;2024-03-23T07:59:33;7.40;;;6.77;;
2494;SDS011;1258;48.336;14.322;2024-03-23T08:01:59;7.50;;;6.80;;
2494;SDS011;1258;48.336;14.322;2024-03-23T08:04:28;7.13;;;6.53;;
2494;SDS011;1258;48.336;14.322;2024-03-23T08:06:57;7.43;;;6.70;;
2494;SDS011;1258;48.336;14.322;2024-03-23T08:09:23;6.87;;;6.30;;
2494;SDS011;1258;48.336;14.322;2024-03-23T08:11:49;6.90;;;6.30;;
2494;SDS011;1258;48.336;14.322;2024-03-23T08:14:16;6.33;;;5.73;;
2494;SDS011;1258;48.336;14.322;2024-03-23T08:16:42;7.20;;;6.50;;
2494;SDS011;1258;48.336;14.322;2024-03-23T08:19:13;6.70;;;6.03;;
2494;SDS011;1258;48.336;14.322;2024-03-23T08:21:39;6.80;;;6.20;;
2494;SDS011;1258;48.336;14.322;2024-03-23T08:24:08;7.90;;;7.30;;
2494;SDS011;1258;48.336;14.322;2024-03-23T08:26:34;7.57;;;6.97;;
2494;SDS011;1258;48.336;14.322;2024-03-23T08:29:02;7.57;;;6.67;;
2494;SDS011;1258;48.336;14.322;2024-03-23T08:31:28;7.10;;;6.40;;
2494;SDS011;1258;48.336;14.322;2024-03-23T08:33:55;6.87;;;6.17;;
2494;SDS011;1258;48.336;14.322;2024-03-23T08:36:21;6.17;;;5.67;;
2494;SDS011;1258;48.336;14.322;2024-03-23T08:38:49;6.37;;;5.07;;
2494;SDS011;1258;48.336;14.322;2024-03-23T08:41:17;5.60;;;5.10;;
2494;SDS011;1258;48.336;14.322;2024-03-23T08:43:43;6.20;;;5.60;;
2494;SDS011;1258;48.336;14.322;2024-03-23T08:46:10;5.43;;;5.03;;
2494;SDS011;1258;48.336;14.322;2024-03-23T08:48:38;6.43;;;5.80;;
2494;SDS011;1258;48.336;14.322;2024-03-23T08:51:06;4.90;;;4.50;;
2494;SDS011;1258;48.336;14.322;2024-03-23T08:53:34;4.67;;;4.27;;
2494;SDS011;1258;48.336;14.322;2024-03-23T08:56:00;3.43;;;3.13;;
2494;SDS011;1258;48.336;14.322;2024-03-23T08:58:30;4.03;;;3.70;;
2494;SDS011;1258;48.336;14.322;2024-03-23T09:01:02;4.60;;;4.03;;
2494;SDS011;1258;48.336;14.322;2024-03-23T09:03:29;4.60;;;4.20;;
2494;SDS011;1258;48.336;14.322;2024-03-23T09:05:56;3.77;;;3.47;;
2494;SDS011;1258;48.336;14.322;2024-03-23T09:08:23;3.57;;;3.27;;
2494;SDS011;1258;48.336;14.322;2024-03-23T09:10:49;3.93;;;3.53;;
2494;SDS011;1258;48.336;14.322;2024-03-23T09:13:16;3.70;;;3.40;;
2494;SDS011;1258;48.336;14.322;2024-03-23T09:15:46;6.00;;;3.90;;
2494;SDS011;1258;48.336;14.322;2024-03-23T09:18:14;4.07;;;3.67;;
2494;SDS011;1258;48.336;14.322;2024-03-23T09:20:40;3.90;;;3.60;;
2494;SDS011;1258;48.336;14.322;2024-03-23T09:23:07;3.50;;;3.20;;
2494;SDS011;1258;48.336;14.322;2024-03-23T09:25:35;3.37;;;3.00;;
2494;SDS011;1258;48.336;14.322;2024-03-23T09:28:03;2.77;;;2.40;;
2494;SDS011;1258;48.336;14.322;2024-03-23T09:30:29;3.53;;;3.23;;
2494;SDS011;1258;48.336;14.322;2024-03-23T09:32:57;3.30;;;3.00;;
2494;SDS011;1258;48.336;14.322;2024-03-23T09:35:23;3.40;;;3.10;;
2494;SDS011;1258;48.336;14.322;2024-03-23T09:37:50;4.30;;;3.90;;
2494;SDS011;1258;48.336;14.322;2024-03-23T09:40:16;4.77;;;3.10;;
2494;SDS011;1258;48.336;14.322;2024-03-23T09:42:43;3.80;;;2.90;;
2494;SDS011;1258;48.336;14.322;2024-03-23T09:45:16;3.40;;;2.47;;
2494;SDS011;1258;48.336;14.322;2024-03-23T09:47:46;3.13;;;2.67;;
2494;SDS011;1258;48.336;14.322;2024-03-23T09:50:13;2.87;;;2.20;;
2494;SDS011;1258;48.336;14.322;2024-03-23T09:52:40;3.70;;;3.27;;
2494;SDS011;1258;48.336;14.322;2024-03-23T09:55:07;4.40;;;3.50;;
2494;SDS011;1258;48.336;14.322;2024-03-23T09:57:35;4.80;;;4.27;;
2494;SDS011;1258;48.336;14.322;2024-03-23T10:00:01;4.00;;;3.60;;
2494;SDS011;1258;48.336;14.322;2024-03-23T10:02:28;3.67;;;3.10;;
2494;SDS011;1258;48.336;14.322;2024-03-23T10:04:54;4.63;;;4.23;;
2494;SDS011;1258;48.336;14.322;2024-03-23T10:07:23;4.63;;;4.20;;
2494;SDS011;1258;48.336;14.322;2024-03-23T10:09:50;3.53;;;3.00;;
2494;SDS011;1258;48.336;14.322;2024-03-23T10:12:18;4.93;;;3.20;;
2494;SDS011;1258;48.336;14.322;2024-03-23T10:14:45;3.53;;;3.13;;
2494;SDS011;1258;48.336;14.322;2024-03-23T10:17:13;3.10;;;2.80;;
2494;SDS011;1258;48.336;14.322;2024-03-23T10:19:40;3.30;;;2.67;;
2494;SDS011;1258;48.336;14.322;2024-03-23T10:22:09;2.80;;;2.53;;
2494;SDS011;1258;48.336;14.322;2024-03-23T10:24:40;2.93;;;2.37;;
2494;SDS011;1258;48.336;14.322;2024-03-23T10:27:07;3.60;;;2.47;;
2494;SDS011;1258;48.336;14.322;2024-03-23T10:29:33;2.17;;;1.97;;
2494;SDS011;1258;48.336;14.322;2024-03-23T10:32:10;2.23;;;1.90;;
2494;SDS011;1258;48.336;14.322;2024-03-23T10:34:37;1.97;;;1.63;;
2494;SDS011;1258;48.336;14.322;2024-03-23T10:37:04;2.10;;;1.20;;
2494;SDS011;1258;48.336;14.322;2024-03-23T10:39:31;2.40;;;1.00;;
2494;SDS011;1258;48.336;14.322;2024-03-23T10:42:02;1.60;;;0.80;;
2494;SDS011;1258;48.336;14.322;2024-03-23T10:44:29;2.13;;;0.90;;
2494;SDS011;1258;48.336;14.322;2024-03-23T10:46:57;1.20;;;0.77;;
2494;SDS011;1258;48.336;14.322;2024-03-23T10:49:26;1.57;;;0.80;;
2494;SDS011;1258;48.336;14.322;2024-03-23T10:51:56;2.57;;;1.10;;
2494;SDS011;1258;48.336;14.322;2024-03-23T10:54:23;1.33;;;0.90;;
2494;SDS011;1258;48.336;14.322;2024-03-23T10:56:52;1.60;;;1.20;;
2494;SDS011;1258;48.336;14.322;2024-03-23T10:59:23;1.60;;;0.83;;
2494;SDS011;1258;48.336;14.322;2024-03-23T11:01:54;1.30;;;0.77;;
2494;SDS011;1258;48.336;14.322;2024-03-23T11:04:30;1.60;;;0.93;;
2494;SDS011;1258;48.336;14.322;2024-03-23T11:06:58;1.30;;;0.80;;
2494;SDS011;1258;48.336;14.322;2024-03-23T11:09:40;1.57;;;0.80;;
2494;SDS011;1258;48.336;14.322;2024-03-23T11:12:26;1.43;;;0.80;;
2494;SDS011;1258;48.336;14.322;2024-03-23T11:14:55;1.60;;;0.70;;
2494;SDS011;1258;48.336;14.322;2024-03-23T11:17:25;1.70;;;0.80;;
2494;SDS011;1258;48.336;14.322;2024-03-23T11:19:54;1.50;;;0.70;;
2494;SDS011;1258;48.336;14.322;2024-03-23T11:22:41;1.40;;;0.70;;
2494;SDS011;1258;48.336;14.322;2024-03-23T11:25:14;1.20;;;0.50;;
2494;SDS011;1258;48.336;14.322;2024-03-23T11:27:43;1.20;;;0.60;;
2494;SDS011;1258;48.336;14.322;2024-03-23T11:30:14;1.40;;;0.50;;
2494;SDS011;1258;48.336;14.322;2024-03-23T11:32:43;1.30;;;0.60;;
2494;SDS011;1258;48.336;14.322;2024-03-23T11:35:10;1.23;;;0.60;;
2494;SDS011;1258;48.336;14.322;2024-03-23T11:38:00;1.80;;;0.70;;
2494;SDS011;1258;48.336;14.322;2024-03-23T11:40:30;1.20;;;0.60;;
2494;SDS011;1258;48.336;14.322;2024-03-23T11:42:57;1.33;;;0.70;;
2494;SDS011;1258;48.336;14.322;2024-03-23T11:45:26;1.20;;;0.80;;
2494;SDS011;1258;48.336;14.322;2024-03-23T11:48:04;1.20;;;0.80;;
2494;SDS011;1258;48.336;14.322;2024-03-23T11:50:31;1.60;;;0.90;;
2494;SDS011;1258;48.336;14.322;2024-03-23T11:53:08;1.40;;;0.87;;
2494;SDS011;1258;48.336;14.322;2024-03-23T11:55:45;2.63;;;1.13;;
2494;SDS011;1258;48.336;14.322;2024-03-23T11:58:13;2.80;;;1.10;;
2494;SDS011;1258;48.336;14.322;2024-03-23T12:00:41;1.33;;;0.93;;
2494;SDS011;1258;48.336;14.322;2024-03-23T12:03:08;1.40;;;0.90;;
2494;SDS011;1258;48.336;14.322;2024-03-23T12:05:35;1.77;;;0.80;;
2494;SDS011;1258;48.336;14.322;2024-03-23T12:08:16;1.40;;;1.00;;
2494;SDS011;1258;48.336;14.322;2024-03-23T12:10:47;1.83;;;1.33;;
2494;SDS011;1258;48.336;14.322;2024-03-23T12:13:16;1.60;;;1.20;;
2494;SDS011;1258;48.336;14.322;2024-03-23T12:15:44;1.90;;;1.33;;
2494;SDS011;1258;48.336;14.322;2024-03-23T12:18:12;1.60;;;1.13;;
2494;SDS011;1258;48.336;14.322;2024-03-23T12:20:38;1.83;;;1.40;;
2494;SDS011;1258;48.336;14.322;2024-03-23T12:23:07;1.90;;;1.30;;
2494;SDS011;1258;48.336;14.322;2024-03-23T12:25:34;1.50;;;1.10;;
2494;SDS011;1258;48.336;14.322;2024-03-23T12:28:02;1.63;;;1.23;;
2494;SDS011;1258;48.336;14.322;2024-03-23T12:30:28;1.53;;;1.20;;
2494;SDS011;1258;48.336;14.322;2024-03-23T12:32:56;2.10;;;1.20;;
2494;SDS011;1258;48.336;14.322;2024-03-23T12:35:22;2.10;;;1.33;;
2494;SDS011;1258;48.336;14.322;2024-03-23T12:37:49;1.60;;;0.90;;
2494;SDS011;1258;48.336;14.322;2024-03-23T12:40:15;1.93;;;1.67;;
2494;SDS011;1258;48.336;14.322;2024-03-23T12:42:42;2.30;;;1.73;;
2494;SDS011;1258;48.336;14.322;2024-03-23T12:45:08;1.53;;;1.27;;
2494;SDS011;1258;48.336;14.322;2024-03-23T12:47:35;1.93;;;1.73;;
2494;SDS011;1258;48.336;14.322;2024-03-23T12:50:03;1.80;;;1.60;;
2494;SDS011;1258;48.336;14.322;2024-03-23T12:52:30;1.63;;;1.53;;
2494;SDS011;1258;48.336;14.322;2024-03-23T12:54:57;1.60;;;1.47;;
2494;SDS011;1258;48.336;14.322;2024-03-23T12:57:24;2.00;;;1.53;;
2494;SDS011;1258;48.336;14.322;2024-03-23T12:59:51;3.90;;;1.90;;
2494;SDS011;1258;48.336;14.322;2024-03-23T13:02:18;1.80;;;1.57;;
2494;SDS011;1258;48.336;14.322;2024-03-23T13:04:45;2.10;;;1.90;;
2494;SDS011;1258;48.336;14.322;2024-03-23T13:07:14;2.03;;;1.70;;
2494;SDS011;1258;48.336;14.322;2024-03-23T13:09:41;1.60;;;1.30;;
2494;SDS011;1258;48.336;14.322;2024-03-23T13:12:08;1.90;;;1.50;;
2494;SDS011;1258;48.336;14.322;2024-03-23T13:14:34;1.60;;;1.33;;
2494;SDS011;1258;48.336;14.322;2024-03-23T13:17:01;2.60;;;1.40;;
2494;SDS011;1258;48.336;14.322;2024-03-23T13:19:28;1.60;;;1.40;;
2494;SDS011;1258;48.336;14.322;2024-03-23T13:21:56;1.77;;;1.60;;
2494;SDS011;1258;48.336;14.322;2024-03-23T13:24:24;1.80;;;1.17;;
2494;SDS011;1258;48.336;14.322;2024-03-23T13:26:51;1.60;;;1.30;;
2494;SDS011;1258;48.336;14.322;2024-03-23T13:29:17;2.57;;;1.20;;
2494;SDS011;1258;48.336;14.322;2024-03-23T13:31:45;1.40;;;1.10;;
2494;SDS011;1258;48.336;14.322;2024-03-23T13:34:11;2.67;;;1.17;;
2494;SDS011;1258;48.336;14.322;2024-03-23T13:36:40;1.50;;;1.30;;
2494;SDS011;1258;48.336;14.322;2024-03-23T13:39:06;1.20;;;0.97;;
2494;SDS011;1258;48.336;14.322;2024-03-23T13:41:37;1.60;;;1.30;;
2494;SDS011;1258;48.336;14.322;2024-03-23T13:44:04;1.57;;;1.37;;
2494;SDS011;1258;48.336;14.322;2024-03-23T13:46:31;1.43;;;1.03;;
2494;SDS011;1258;48.336;14.322;2024-03-23T13:48:57;1.70;;;1.27;;
2494;SDS011;1258;48.336;14.322;2024-03-23T13:51:25;1.70;;;1.30;;
2494;SDS011;1258;48.336;14.322;2024-03-23T13:53:52;1.80;;;1.43;;
2494;SDS011;1258;48.336;14.322;2024-03-23T13:56:19;1.40;;;1.10;;
2494;SDS011;1258;48.336;14.322;2024-03-23T13:58:47;1.63;;;0.90;;
2494;SDS011;1258;48.336;14.322;2024-03-23T14:01:14;1.27;;;0.80;;
2494;SDS011;1258;48.336;14.322;2024-03-23T14:03:40;1.53;;;1.10;;
2494;SDS011;1258;48.336;14.322;2024-03-23T14:06:07;2.17;;;1.13;;
2494;SDS011;1258;48.336;14.322;2024-03-23T14:08:33;1.60;;;1.27;;
2494;SDS011;1258;48.336;14.322;2024-03-23T14:11:04;1.30;;;1.03;;
2494;SDS011;1258;48.336;14.322;2024-03-23T14:13:30;1.70;;;1.17;;
2494;SDS011;1258;48.336;14.322;2024-03-23T14:15:59;1.20;;;0.97;;
2494;SDS011;1258;48.336;14.322;2024-03-23T14:18:25;1.30;;;1.00;;
2494;SDS011;1258;48.336;14.322;2024-03-23T14:20:52;1.20;;;1.07;;
2494;SDS011;1258;48.336;14.322;2024-03-23T14:23:23;1.63;;;1.20;;
2494;SDS011;1258;48.336;14.322;2024-03-23T14:25:52;1.40;;;1.20;;
2494;SDS011;1258;48.336;14.322;2024-03-23T14:28:19;1.30;;;1.07;;
2494;SDS011;1258;48.336;14.322;2024-03-23T14:30:47;2.23;;;1.30;;
2494;SDS011;1258;48.336;14.322;2024-03-23T14:33:14;1.30;;;1.10;;
2494;SDS011;1258;48.336;14.322;2024-03-23T14:35:41;1.23;;;1.03;;
2494;SDS011;1258;48.336;14.322;2024-03-23T14:38:07;2.27;;;1.10;;
2494;SDS011;1258;48.336;14.322;2024-03-23T14:40:34;1.80;;;1.23;;
2494;SDS011;1258;48.336;14.322;2024-03-23T14:42:59;1.90;;;1.30;;
2494;SDS011;1258;48.336;14.322;2024-03-23T14:45:27;1.40;;;1.20;;
2494;SDS011;1258;48.336;14.322;2024-03-23T14:47:53;1.43;;;1.10;;
2494;SDS011;1258;48.336;14.322;2024-03-23T14:50:21;1.30;;;1.10;;
2494;SDS011;1258;48.336;14.322;2024-03-23T14:52:47;1.67;;;1.27;;
2494;SDS011;1258;48.336;14.322;2024-03-23T14:55:16;2.57;;;1.30;;
2494;SDS011;1258;48.336;14.322;2024-03-23T14:57:42;1.27;;;1.17;;
2494;SDS011;1258;48.336;14.322;2024-03-23T15:00:09;1.60;;;1.00;;
2494;SDS011;1258;48.336;14.322;2024-03-23T15:02:37;1.30;;;1.03;;
2494;SDS011;1258;48.336;14.322;2024-03-23T15:05:04;1.70;;;1.60;;
2494;SDS011;1258;48.336;14.322;2024-03-23T15:07:31;2.43;;;1.70;;
2494;SDS011;1258;48.336;14.322;2024-03-23T15:09:58;1.97;;;1.63;;
2494;SDS011;1258;48.336;14.322;2024-03-23T15:12:24;1.77;;;1.57;;
2494;SDS011;1258;48.336;14.322;2024-03-23T15:14:51;1.70;;;1.40;;
2494;SDS011;1258;48.336;14.322;2024-03-23T15:17:17;1.70;;;1.60;;
2494;SDS011;1258;48.336;14.322;2024-03-23T15:19:44;1.90;;;1.70;;
2494;SDS011;1258;48.336;14.322;2024-03-23T15:22:10;2.20;;;1.87;;
2494;SDS011;1258;48.336;14.322;2024-03-23T15:24:38;1.90;;;1.67;;
2494;SDS011;1258;48.336;14.322;2024-03-23T15:27:04;4.57;;;1.70;;
2494;SDS011;1258;48.336;14.322;2024-03-23T15:29:33;1.77;;;1.67;;
2494;SDS011;1258;48.336;14.322;2024-03-23T15:32:01;2.10;;;1.80;;
2494;SDS011;1258;48.336;14.322;2024-03-23T15:34:28;1.90;;;1.70;;
2494;SDS011;1258;48.336;14.322;2024-03-23T15:36:54;2.03;;;1.77;;
2494;SDS011;1258;48.336;14.322;2024-03-23T15:39:21;1.57;;;1.47;;
2494;SDS011;1258;48.336;14.322;2024-03-23T15:41:48;2.13;;;1.60;;
2494;SDS011;1258;48.336;14.322;2024-03-23T15:44:15;2.40;;;1.60;;
2494;SDS011;1258;48.336;14.322;2024-03-23T15:46:41;1.70;;;1.50;;
2494;SDS011;1258;48.336;14.322;2024-03-23T15:49:08;1.43;;;1.33;;
2494;SDS011;1258;48.336;14.322;2024-03-23T15:51:34;1.70;;;1.50;;
2494;SDS011;1258;48.336;14.322;2024-03-23T15:54:02;1.30;;;0.93;;
2494;SDS011;1258;48.336;14.322;2024-03-23T15:56:28;1.30;;;1.10;;